createdAt,value
2022-09-27T00:00:19.398Z,97834.88
2022-09-27T00:00:50.921Z,97832.00
2022-09-27T00:01:22.432Z,97835.50
2022-09-27T00:01:53.980Z,97836.91
2022-09-27T00:02:25.638Z,97832.59
2022-09-27T00:02:57.275Z,97832.34
2022-09-27T00:03:29.256Z,97838.78
2022-09-27T00:04:00.787Z,97840.41
2022-09-27T00:04:32.282Z,97833.22
2022-09-27T00:05:03.914Z,97834.88
2022-09-27T00:05:35.458Z,97839.16
2022-09-27T00:06:08.178Z,97834.44
2022-09-27T00:06:41.061Z,97836.91
2022-09-27T00:07:12.789Z,97840.59
2022-09-27T00:07:44.660Z,97839.97
2022-09-27T00:08:16.282Z,97838.97
2022-09-27T00:08:47.867Z,97838.78
2022-09-27T00:09:19.401Z,97847.59
2022-09-27T00:09:50.963Z,97844.28
2022-09-27T00:10:22.488Z,97841.03
2022-09-27T00:11:03.826Z,97847.00
2022-09-27T00:11:36.048Z,97846.34
2022-09-27T00:12:07.552Z,97849.22
2022-09-27T00:12:39.150Z,97848.22
2022-09-27T00:13:10.607Z,97847.59
2022-09-27T00:13:42.174Z,97849.63
2022-09-27T00:14:14.151Z,97845.53
2022-09-27T00:14:45.578Z,97851.06
2022-09-27T00:15:17.198Z,97856.78
2022-09-27T00:15:48.806Z,97852.91
2022-09-27T00:16:21.394Z,97853.94
2022-09-27T00:16:52.944Z,97851.88
2022-09-27T00:17:24.370Z,97855.78
2022-09-27T00:17:55.794Z,97854.78
2022-09-27T00:18:27.290Z,97852.91
2022-09-27T00:18:59.283Z,97854.53
2022-09-27T00:19:31.027Z,97860.09
2022-09-27T00:20:02.649Z,97859.25
2022-09-27T00:20:34.586Z,97861.94
2022-09-27T00:21:10.073Z,97859.25
2022-09-27T00:21:41.751Z,97859.47
2022-09-27T00:22:13.276Z,97859.06
2022-09-27T00:22:44.784Z,97855.59
2022-09-27T00:23:16.321Z,97857.22
2022-09-27T00:23:47.879Z,97860.31
2022-09-27T00:24:20.407Z,97862.13
2022-09-27T00:24:52.023Z,97868.09
2022-09-27T00:25:23.494Z,97858.25
2022-09-27T00:25:55.718Z,97866.44
2022-09-27T00:26:27.229Z,97858.25
2022-09-27T00:26:58.690Z,97860.31
2022-09-27T00:27:30.332Z,97863.97
2022-09-27T00:28:01.851Z,97866.63
2022-09-27T00:28:33.391Z,97860.09
2022-09-27T00:29:05.010Z,97860.91
2022-09-27T00:29:36.560Z,97860.50
2022-09-27T00:30:08.365Z,97862.31
2022-09-27T00:30:41.868Z,97860.50
2022-09-27T00:31:23.250Z,97858.63
2022-09-27T00:31:54.801Z,97867.47
2022-09-27T00:32:26.265Z,97866.63
2022-09-27T00:32:57.731Z,97862.31
2022-09-27T00:33:29.210Z,97866.44
2022-09-27T00:34:01.287Z,97864.59
2022-09-27T00:34:32.758Z,97864.59
2022-09-27T00:35:04.402Z,97866.03
2022-09-27T00:35:35.977Z,97865.63
2022-09-27T00:36:07.497Z,97866.84
2022-09-27T00:36:39.047Z,97872.16
2022-09-27T00:37:10.565Z,97871.78
2022-09-27T00:37:42.124Z,97864.97
2022-09-27T00:38:13.582Z,97870.31
2022-09-27T00:38:45.066Z,97864.34
2022-09-27T00:39:16.682Z,97870.50
2022-09-27T00:39:48.289Z,97870.97
2022-09-27T00:40:19.935Z,97869.31
2022-09-27T00:40:51.433Z,97871.97
2022-09-27T00:41:23.897Z,97867.66
2022-09-27T00:41:55.430Z,97876.50
2022-09-27T00:42:26.957Z,97876.69
2022-09-27T00:42:58.492Z,97874.66
2022-09-27T00:43:47.903Z,97871.59
2022-09-27T00:44:25.091Z,97875.03
2022-09-27T00:45:00.708Z,97873.19
2022-09-27T00:45:32.224Z,97871.97
2022-09-27T00:46:03.962Z,97877.31
2022-09-27T00:46:38.160Z,97871.59
2022-09-27T00:47:30.268Z,97871.78
2022-09-27T00:48:02.428Z,97872.59
2022-09-27T00:48:33.953Z,97872.16
2022-09-27T00:49:06.551Z,97868.31
2022-09-27T00:49:42.249Z,97868.31
2022-09-27T00:50:33.974Z,97872.97
2022-09-27T00:51:05.522Z,97868.69
2022-09-27T00:51:37.099Z,97874.22
2022-09-27T00:52:14.190Z,97880.34
2022-09-27T00:52:47.280Z,97875.03
2022-09-27T00:53:29.267Z,97878.69
2022-09-27T00:54:00.711Z,97876.03
2022-09-27T00:54:32.156Z,97874.78
2022-09-27T00:55:07.544Z,97880.34
2022-09-27T00:55:40.731Z,97878.69
2022-09-27T00:56:13.377Z,97872.97
2022-09-27T00:56:44.841Z,97876.69
2022-09-27T00:57:16.716Z,97879.97
2022-09-27T00:57:48.219Z,97885.69
2022-09-27T00:58:21.891Z,97875.03
2022-09-27T00:58:57.736Z,97879.16
2022-09-27T00:59:30.525Z,97877.88
2022-09-27T01:00:03.603Z,97886.97
2022-09-27T01:00:35.971Z,97883.84
2022-09-27T01:01:07.718Z,97883.66
2022-09-27T01:01:39.392Z,97878.78
2022-09-27T01:02:11.048Z,97886.13
2022-09-27T01:02:43.877Z,97882.84
2022-09-27T01:03:16.086Z,97893.69
2022-09-27T01:03:49.732Z,97880.97
2022-09-27T01:04:24.828Z,97886.97
2022-09-27T01:04:56.855Z,97884.03
2022-09-27T01:05:28.313Z,97884.03
2022-09-27T01:05:59.837Z,97890.03
2022-09-27T01:06:31.391Z,97885.88
2022-09-27T01:07:02.909Z,97892.69
2022-09-27T01:07:34.467Z,97883.66
2022-09-27T01:08:05.971Z,97890.22
2022-09-27T01:08:37.481Z,97888.38
2022-09-27T01:09:09.305Z,97898.03
2022-09-27T01:09:40.839Z,97893.69
2022-09-27T01:10:12.430Z,97895.16
2022-09-27T01:10:50.455Z,97894.97
2022-09-27T01:11:34.858Z,97893.94
2022-09-27T01:12:08.956Z,97902.97
2022-09-27T01:13:15.705Z,97894.97
2022-09-27T01:14:07.364Z,97893.94
2022-09-27T01:14:44.438Z,97894.97
2022-09-27T01:15:21.548Z,97898.84
2022-09-27T01:15:53.013Z,97898.03
2022-09-27T01:16:28.042Z,97895.34
2022-09-27T01:17:06.382Z,97892.50
2022-09-27T01:17:40.725Z,97902.97
2022-09-27T01:18:16.212Z,97890.44
2022-09-27T01:18:55.972Z,97905.84
2022-09-27T01:19:27.376Z,97898.66
2022-09-27T01:20:17.140Z,97903.59
2022-09-27T01:21:10.538Z,97898.84
2022-09-27T01:22:00.669Z,97901.94
2022-09-27T01:22:50.401Z,97894.91
2022-09-27T01:23:24.806Z,97900.50
2022-09-27T01:23:59.368Z,97894.69
2022-09-27T01:24:49.239Z,97904.16
2022-09-27T01:25:50.055Z,97902.31
2022-09-27T01:26:39.958Z,97902.31
2022-09-27T01:27:11.365Z,97902.31
2022-09-27T01:28:03.126Z,97904.97
2022-09-27T01:28:43.492Z,97903.16
2022-09-27T01:29:29.962Z,97903.56
2022-09-27T01:30:20.119Z,97909.88
2022-09-27T01:30:56.297Z,97907.41
2022-09-27T01:31:30.346Z,97905.38
2022-09-27T01:32:14.236Z,97905.38
2022-09-27T01:33:03.739Z,97911.97
2022-09-27T01:33:35.372Z,97912.16
2022-09-27T01:34:12.820Z,97907.03
2022-09-27T01:34:45.428Z,97908.69
2022-09-27T01:35:37.020Z,97904.38
2022-09-27T01:36:08.477Z,97909.06
2022-09-27T01:36:39.919Z,97910.91
2022-09-27T01:37:17.475Z,97908.41
2022-09-27T01:37:54.663Z,97914.03
2022-09-27T01:38:42.968Z,97902.31
2022-09-27T01:39:20.335Z,97913.00
2022-09-27T01:40:09.703Z,97910.69
2022-09-27T01:40:47.780Z,97910.69
2022-09-27T01:41:39.097Z,97914.66
2022-09-27T01:42:22.469Z,97916.69
2022-09-27T01:42:57.324Z,97913.00
2022-09-27T01:43:37.273Z,97914.47
2022-09-27T01:44:10.428Z,97916.69
2022-09-27T01:44:50.418Z,97924.88
2022-09-27T01:45:23.817Z,97919.75
2022-09-27T01:45:56.816Z,97920.13
2022-09-27T01:46:30.016Z,97911.31
2022-09-27T01:47:05.431Z,97915.41
2022-09-27T01:47:39.659Z,97917.66
2022-09-27T01:48:12.836Z,97921.38
2022-09-27T01:48:45.298Z,97913.13
2022-09-27T01:49:18.877Z,97913.97
2022-09-27T01:49:58.058Z,97907.41
2022-09-27T01:50:32.371Z,97910.09
2022-09-27T01:51:11.236Z,97909.47
2022-09-27T01:51:44.514Z,97913.97
2022-09-27T01:52:16.815Z,97906.78
2022-09-27T01:52:49.302Z,97908.41
2022-09-27T01:53:34.433Z,97911.94
2022-09-27T01:54:06.041Z,97911.75
2022-09-27T01:54:38.964Z,97915.22
2022-09-27T01:55:10.728Z,97909.25
2022-09-27T01:55:42.220Z,97913.75
2022-09-27T01:56:15.481Z,97914.78
2022-09-27T01:56:50.883Z,97904.38
2022-09-27T01:57:25.613Z,97913.97
2022-09-27T01:58:01.326Z,97911.31
2022-09-27T01:58:34.225Z,97912.94
2022-09-27T01:59:12.806Z,97915.16
2022-09-27T01:59:48.240Z,97915.41
2022-09-27T02:00:19.772Z,97917.69
2022-09-27T02:00:51.356Z,97912.13
2022-09-27T02:01:22.845Z,97916.88
2022-09-27T02:01:54.387Z,97907.22
2022-09-27T02:02:26.541Z,97911.50
2022-09-27T02:02:59.139Z,97913.50
2022-09-27T02:03:35.572Z,97916.41
2022-09-27T02:04:08.544Z,97911.75
2022-09-27T02:04:40.354Z,97912.75
2022-09-27T02:05:11.942Z,97916.41
2022-09-27T02:05:47.600Z,97916.22
2022-09-27T02:06:20.109Z,97916.03
2022-09-27T02:06:53.694Z,97911.09
2022-09-27T02:07:29.131Z,97916.03
2022-09-27T02:08:05.478Z,97910.69
2022-09-27T02:08:39.598Z,97915.59
2022-09-27T02:09:22.699Z,97918.72
2022-09-27T02:09:56.414Z,97915.22
2022-09-27T02:10:53.713Z,97911.09
2022-09-27T02:11:25.170Z,97911.94
2022-09-27T02:11:58.097Z,97914.97
2022-09-27T02:12:33.279Z,97914.41
2022-09-27T02:13:04.662Z,97915.22
2022-09-27T02:13:40.664Z,97917.06
2022-09-27T02:14:16.405Z,97908.03
2022-09-27T02:14:53.139Z,97916.69
2022-09-27T02:15:24.814Z,97914.03
2022-09-27T02:15:58.935Z,97920.13
2022-09-27T02:16:36.206Z,97919.56
2022-09-27T02:17:13.531Z,97925.88
2022-09-27T02:17:47.927Z,97918.09
2022-09-27T02:18:20.110Z,97922.59
2022-09-27T02:18:57.607Z,97921.13
2022-09-27T02:19:29.073Z,97919.50
2022-09-27T02:20:03.378Z,97920.13
2022-09-27T02:20:38.609Z,97918.47
2022-09-27T02:21:10.070Z,97922.41
2022-09-27T02:21:44.454Z,97922.16
2022-09-27T02:22:21.615Z,97923.38
2022-09-27T02:22:55.889Z,97920.50
2022-09-27T02:23:30.108Z,97922.16
2022-09-27T02:24:01.634Z,97915.78
2022-09-27T02:24:37.089Z,97923.41
2022-09-27T02:25:23.637Z,97920.94
2022-09-27T02:25:55.061Z,97921.75
2022-09-27T02:26:40.097Z,97917.66
2022-09-27T02:27:12.803Z,97926.28
2022-09-27T02:27:44.242Z,97919.75
2022-09-27T02:28:24.230Z,97926.47
2022-09-27T02:28:58.223Z,97924.03
2022-09-27T02:29:34.594Z,97927.56
2022-09-27T02:30:07.412Z,97925.69
2022-09-27T02:30:39.109Z,97919.75
2022-09-27T02:31:10.708Z,97921.38
2022-09-27T02:31:42.472Z,97926.69
2022-09-27T02:32:14.093Z,97923.41
2022-09-27T02:32:45.681Z,97924.66
2022-09-27T02:33:18.370Z,97927.31
2022-09-27T02:33:52.734Z,97924.41
2022-09-27T02:34:24.854Z,97926.47
2022-09-27T02:34:57.345Z,97925.03
2022-09-27T02:35:29.685Z,97926.47
2022-09-27T02:36:01.348Z,97934.84
2022-09-27T02:36:32.862Z,97930.97
2022-09-27T02:37:04.384Z,97928.69
2022-09-27T02:37:35.863Z,97934.84
2022-09-27T02:38:07.390Z,97928.94
2022-09-27T02:38:38.896Z,97933.66
2022-09-27T02:39:11.488Z,97927.31
2022-09-27T02:39:43.083Z,97934.84
2022-09-27T02:40:14.785Z,97933.47
2022-09-27T02:40:46.749Z,97932.63
2022-09-27T02:41:19.229Z,97929.50
2022-09-27T02:41:50.714Z,97933.66
2022-09-27T02:42:22.206Z,97936.31
2022-09-27T02:42:53.778Z,97933.47
2022-09-27T02:43:26.158Z,97932.84
2022-09-27T02:44:02.718Z,97930.34
2022-09-27T02:44:34.226Z,97933.47
2022-09-27T02:45:05.968Z,97931.22
2022-09-27T02:46:00.806Z,97929.38
2022-09-27T02:46:43.238Z,97932.88
2022-09-27T02:47:27.241Z,97930.41
2022-09-27T02:48:17.031Z,97931.78
2022-09-27T02:48:54.184Z,97936.31
2022-09-27T02:49:34.413Z,97932.41
2022-09-27T02:50:08.418Z,97928.13
2022-09-27T02:50:42.568Z,97927.94
2022-09-27T02:51:19.742Z,97934.09
2022-09-27T02:51:53.891Z,97928.13
2022-09-27T02:52:43.701Z,97935.94
2022-09-27T02:53:33.456Z,97932.41
2022-09-27T02:54:05.003Z,97930.78
2022-09-27T02:54:36.483Z,97935.31
2022-09-27T02:55:23.667Z,97934.47
2022-09-27T02:56:24.195Z,97941.66
2022-09-27T02:56:55.645Z,97934.47
2022-09-27T02:57:53.561Z,97939.16
2022-09-27T02:58:33.520Z,97941.84
2022-09-27T02:59:18.188Z,97937.50
2022-09-27T02:59:52.027Z,97945.50
2022-09-27T03:00:25.437Z,97942.28
2022-09-27T03:01:05.523Z,97936.13
2022-09-27T03:01:43.779Z,97942.09
2022-09-27T03:02:29.518Z,97937.75
2022-09-27T03:03:13.342Z,97933.25
2022-09-27T03:03:55.185Z,97937.13
2022-09-27T03:04:31.634Z,97937.13
2022-09-27T03:05:04.352Z,97938.59
2022-09-27T03:05:45.765Z,97939.22
2022-09-27T03:06:17.901Z,97937.50
2022-09-27T03:06:49.454Z,97939.78
2022-09-27T03:07:20.969Z,97936.94
2022-09-27T03:07:52.500Z,97935.09
2022-09-27T03:08:24.006Z,97942.47
2022-09-27T03:08:55.541Z,97933.84
2022-09-27T03:09:30.342Z,97935.31
2022-09-27T03:10:01.814Z,97935.50
2022-09-27T03:10:33.369Z,97945.97
2022-09-27T03:11:05.094Z,97932.41
2022-09-27T03:11:36.585Z,97932.41
2022-09-27T03:12:07.997Z,97939.22
2022-09-27T03:12:39.544Z,97936.56
2022-09-27T03:13:11.118Z,97936.94
2022-09-27T03:14:01.833Z,97932.41
2022-09-27T03:14:34.611Z,97937.75
2022-09-27T03:15:06.326Z,97939.78
2022-09-27T03:15:37.839Z,97938.97
2022-09-27T03:16:09.351Z,97946.16
2022-09-27T03:16:40.906Z,97931.59
2022-09-27T03:17:12.552Z,97938.16
2022-09-27T03:17:44.102Z,97943.31
2022-09-27T03:18:16.621Z,97936.13
2022-09-27T03:18:48.069Z,97939.78
2022-09-27T03:19:19.613Z,97943.69
2022-09-27T03:19:51.410Z,97950.47
2022-09-27T03:20:23.109Z,97942.66
2022-09-27T03:20:54.601Z,97946.78
2022-09-27T03:21:26.089Z,97942.28
2022-09-27T03:21:57.606Z,97938.16
2022-09-27T03:22:29.119Z,97941.84
2022-09-27T03:23:00.599Z,97950.47
2022-09-27T03:23:32.080Z,97948.41
2022-09-27T03:24:03.722Z,97942.47
2022-09-27T03:24:35.118Z,97943.31
2022-09-27T03:25:06.979Z,97953.75
2022-09-27T03:25:38.433Z,97951.75
2022-09-27T03:26:13.049Z,97950.09
2022-09-27T03:26:44.937Z,97951.50
2022-09-27T03:27:16.393Z,97953.31
2022-09-27T03:27:47.990Z,97960.25
2022-09-27T03:28:19.487Z,97959.03
2022-09-27T03:28:51.086Z,97957.84
2022-09-27T03:29:22.666Z,97952.69
2022-09-27T03:29:54.197Z,97949.66
2022-09-27T03:30:25.808Z,97954.16
2022-09-27T03:30:57.384Z,97956.84
2022-09-27T03:31:29.051Z,97962.16
2022-09-27T03:32:00.810Z,97950.03
2022-09-27T03:32:32.397Z,97954.53
2022-09-27T03:33:04.116Z,97964.19
2022-09-27T03:33:35.659Z,97961.50
2022-09-27T03:34:07.251Z,97961.69
2022-09-27T03:34:38.723Z,97956.19
2022-09-27T03:35:10.402Z,97962.34
2022-09-27T03:35:41.912Z,97957.03
2022-09-27T03:36:13.454Z,97956.19
2022-09-27T03:36:44.951Z,97949.22
2022-09-27T03:37:16.442Z,97954.53
2022-09-27T03:37:48.043Z,97961.50
2022-09-27T03:38:19.539Z,97957.84
2022-09-27T03:38:50.986Z,97962.16
2022-09-27T03:39:22.605Z,97962.72
2022-09-27T03:39:54.147Z,97956.84
2022-09-27T03:40:25.693Z,97966.03
2022-09-27T03:40:57.301Z,97962.53
2022-09-27T03:41:28.841Z,97960.06
2022-09-27T03:42:00.338Z,97959.50
2022-09-27T03:42:31.743Z,97959.50
2022-09-27T03:43:03.285Z,97963.16
2022-09-27T03:43:34.800Z,97961.25
2022-09-27T03:44:06.234Z,97968.88
2022-09-27T03:44:37.774Z,97965.03
2022-09-27T03:45:09.450Z,97965.59
2022-09-27T03:45:42.755Z,97967.22
2022-09-27T03:46:14.336Z,97969.06
2022-09-27T03:46:45.940Z,97967.69
2022-09-27T03:47:17.476Z,97970.34
2022-09-27T03:47:49.069Z,97972.00
2022-09-27T03:48:23.422Z,97974.47
2022-09-27T03:48:58.736Z,97964.84
2022-09-27T03:49:30.280Z,97969.13
2022-09-27T03:50:01.806Z,97973.84
2022-09-27T03:50:33.271Z,97970.16
2022-09-27T03:51:04.739Z,97966.84
2022-09-27T03:51:36.269Z,97971.16
2022-09-27T03:52:07.799Z,97966.03
2022-09-27T03:52:39.375Z,97970.72
2022-09-27T03:53:10.845Z,97970.53
2022-09-27T03:53:42.328Z,97966.84
2022-09-27T03:54:13.803Z,97968.69
2022-09-27T03:54:45.369Z,97965.22
2022-09-27T03:55:16.913Z,97976.88
2022-09-27T03:55:48.452Z,97963.75
2022-09-27T03:56:19.934Z,97972.19
2022-09-27T03:56:51.469Z,97971.56
2022-09-27T03:57:22.959Z,97968.88
2022-09-27T03:57:54.442Z,97974.59
2022-09-27T03:58:26.112Z,97976.88
2022-09-27T03:58:57.612Z,97973.22
2022-09-27T03:59:29.074Z,97969.88
2022-09-27T04:00:00.602Z,97974.59
2022-09-27T04:00:32.113Z,97972.56
2022-09-27T04:01:03.876Z,97969.88
2022-09-27T04:01:35.488Z,97973.22
2022-09-27T04:02:07.015Z,97977.88
2022-09-27T04:02:38.529Z,97972.56
2022-09-27T04:03:10.130Z,97965.59
2022-09-27T04:03:41.635Z,97970.53
2022-09-27T04:04:13.191Z,97972.75
2022-09-27T04:04:44.708Z,97970.91
2022-09-27T04:05:16.284Z,97979.75
2022-09-27T04:05:47.811Z,97972.56
2022-09-27T04:06:19.447Z,97974.59
2022-09-27T04:06:50.927Z,97972.75
2022-09-27T04:07:22.435Z,97971.94
2022-09-27T04:07:53.908Z,97972.19
2022-09-27T04:08:25.401Z,97972.75
2022-09-27T04:08:56.852Z,97968.59
2022-09-27T04:09:28.468Z,97971.94
2022-09-27T04:09:59.906Z,97968.69
2022-09-27T04:10:31.383Z,97969.88
2022-09-27T04:11:02.955Z,97974.59
2022-09-27T04:11:34.431Z,97976.25
2022-09-27T04:12:05.969Z,97974.84
2022-09-27T04:12:39.478Z,97968.50
2022-09-27T04:13:11.010Z,97968.25
2022-09-27T04:13:42.537Z,97975.41
2022-09-27T04:14:14.007Z,97974.22
2022-09-27T04:14:45.558Z,97974.03
2022-09-27T04:15:17.071Z,97974.84
2022-09-27T04:15:52.027Z,97973.84
2022-09-27T04:16:24.074Z,97971.78
2022-09-27T04:16:55.651Z,97966.84
2022-09-27T04:17:27.246Z,97979.16
2022-09-27T04:17:58.670Z,97975.50
2022-09-27T04:18:30.221Z,97977.13
2022-09-27T04:19:01.739Z,97974.47
2022-09-27T04:19:33.235Z,97978.41
2022-09-27T04:20:04.948Z,97974.66
2022-09-27T04:20:36.464Z,97976.94
2022-09-27T04:21:08.042Z,97973.47
2022-09-27T04:21:39.541Z,97979.78
2022-09-27T04:22:11.050Z,97976.13
2022-09-27T04:22:42.524Z,97973.47
2022-09-27T04:23:14.015Z,97975.50
2022-09-27T04:23:45.494Z,97981.84
2022-09-27T04:24:17.136Z,97984.50
2022-09-27T04:24:48.633Z,97982.84
2022-09-27T04:25:20.165Z,97973.84
2022-09-27T04:25:51.675Z,97984.31
2022-09-27T04:26:23.171Z,97974.66
2022-09-27T04:26:54.685Z,97977.50
2022-09-27T04:27:26.275Z,97980.38
2022-09-27T04:27:57.849Z,97980.41
2022-09-27T04:28:29.389Z,97983.31
2022-09-27T04:29:01.012Z,97978.78
2022-09-27T04:29:32.511Z,97982.84
2022-09-27T04:30:04.175Z,97982.66
2022-09-27T04:30:35.685Z,97985.97
2022-09-27T04:31:07.356Z,97982.47
2022-09-27T04:31:38.985Z,97987.59
2022-09-27T04:32:10.526Z,97989.84
2022-09-27T04:32:42.592Z,97992.94
2022-09-27T04:33:14.201Z,97994.53
2022-09-27T04:33:45.780Z,97995.16
2022-09-27T04:34:17.260Z,97997.66
2022-09-27T04:34:48.809Z,98001.13
2022-09-27T04:35:20.312Z,97996.41
2022-09-27T04:35:51.784Z,98006.66
2022-09-27T04:36:23.259Z,97998.84
2022-09-27T04:36:54.771Z,98003.53
2022-09-27T04:37:26.819Z,98006.22
2022-09-27T04:37:58.541Z,98000.88
2022-09-27T04:38:30.013Z,98003.97
2022-09-27T04:39:02.002Z,98003.16
2022-09-27T04:39:33.506Z,98003.78
2022-09-27T04:40:05.164Z,97998.84
2022-09-27T04:40:36.898Z,98007.50
2022-09-27T04:41:08.439Z,97998.66
2022-09-27T04:41:40.091Z,98008.13
2022-09-27T04:42:11.823Z,98008.31
2022-09-27T04:42:43.345Z,98003.97
2022-09-27T04:43:14.904Z,98012.84
2022-09-27T04:43:46.361Z,98010.53
2022-09-27T04:44:17.845Z,98014.03
2022-09-27T04:44:49.476Z,98009.69
2022-09-27T04:45:20.955Z,98016.69
2022-09-27T04:45:52.575Z,98011.94
2022-09-27T04:46:24.147Z,98012.09
2022-09-27T04:46:55.711Z,98007.22
2022-09-27T04:47:27.295Z,98011.53
2022-09-27T04:47:58.839Z,98008.88
2022-09-27T04:48:30.379Z,98006.59
2022-09-27T04:49:01.993Z,98011.53
2022-09-27T04:49:33.505Z,98007.88
2022-09-27T04:50:05.147Z,98003.72
2022-09-27T04:50:36.797Z,98003.34
2022-09-27T04:51:09.325Z,98005.03
2022-09-27T04:51:40.842Z,98008.69
2022-09-27T04:52:12.406Z,98007.50
2022-09-27T04:52:43.954Z,98005.84
2022-09-27T04:53:15.471Z,98006.03
2022-09-27T04:53:47.232Z,98012.19
2022-09-27T04:54:18.716Z,98009.50
2022-09-27T04:54:53.525Z,98009.31
2022-09-27T04:55:25.159Z,98014.47
2022-09-27T04:55:56.731Z,98011.97
2022-09-27T04:56:28.290Z,98015.88
2022-09-27T04:56:59.855Z,98017.31
2022-09-27T04:57:31.335Z,98019.97
2022-09-27T04:58:02.932Z,98019.97
2022-09-27T04:58:34.533Z,98012.84
2022-09-27T04:59:10.041Z,98016.13
2022-09-27T04:59:42.344Z,98020.63
2022-09-27T05:00:14.142Z,98022.47
2022-09-27T05:00:46.694Z,98013.03
2022-09-27T05:01:18.230Z,98022.47
2022-09-27T05:01:50.243Z,98025.50
2022-09-27T05:02:22.033Z,98021.03
2022-09-27T05:02:53.742Z,98025.31
2022-09-27T05:03:25.243Z,98023.50
2022-09-27T05:03:56.746Z,98022.66
2022-09-27T05:04:28.226Z,98029.84
2022-09-27T05:04:59.787Z,98025.50
2022-09-27T05:05:31.310Z,98024.31
2022-09-27T05:06:02.919Z,98029.66
2022-09-27T05:06:34.434Z,98036.63
2022-09-27T05:07:05.911Z,98021.47
2022-09-27T05:07:37.603Z,98025.13
2022-09-27T05:08:09.116Z,98029.66
2022-09-27T05:08:40.626Z,98025.13
2022-09-27T05:09:12.112Z,98027.78
2022-09-27T05:09:43.593Z,98026.78
2022-09-27T05:10:15.095Z,98030.47
2022-09-27T05:10:46.788Z,98037.47
2022-09-27T05:11:18.476Z,98026.16
2022-09-27T05:11:49.983Z,98025.50
2022-09-27T05:12:21.513Z,98030.84
2022-09-27T05:12:53.121Z,98029.84
2022-09-27T05:13:24.638Z,98034.16
2022-09-27T05:13:56.114Z,98031.50
2022-09-27T05:14:27.536Z,98029.66
2022-09-27T05:14:59.048Z,98033.75
2022-09-27T05:15:30.588Z,98032.13
2022-09-27T05:16:02.972Z,98029.66
2022-09-27T05:16:34.484Z,98034.16
2022-09-27T05:17:06.107Z,98039.88
2022-09-27T05:17:37.752Z,98034.16
2022-09-27T05:18:09.240Z,98042.34
2022-09-27T05:18:40.744Z,98041.50
2022-09-27T05:19:12.287Z,98037.84
2022-09-27T05:19:43.833Z,98038.22
2022-09-27T05:20:15.394Z,98037.84
2022-09-27T05:20:46.907Z,98041.13
2022-09-27T05:21:18.403Z,98036.63
2022-09-27T05:21:49.991Z,98036.16
2022-09-27T05:22:24.268Z,98043.97
2022-09-27T05:22:55.733Z,98039.31
2022-09-27T05:23:27.331Z,98046.47
2022-09-27T05:23:58.979Z,98045.03
2022-09-27T05:24:30.523Z,98041.50
2022-09-27T05:25:01.971Z,98047.88
2022-09-27T05:25:33.497Z,98047.88
2022-09-27T05:26:05.635Z,98048.88
2022-09-27T05:26:37.191Z,98054.22
2022-09-27T05:27:09.117Z,98049.69
2022-09-27T05:27:40.601Z,98048.88
2022-09-27T05:28:12.134Z,98045.22
2022-09-27T05:28:43.652Z,98043.97
2022-09-27T05:29:15.261Z,98050.78
2022-09-27T05:29:47.286Z,98045.47
2022-09-27T05:30:18.866Z,98045.22
2022-09-27T05:30:50.397Z,98056.88
2022-09-27T05:31:22.082Z,98049.50
2022-09-27T05:31:53.707Z,98048.88
2022-09-27T05:32:25.182Z,98050.16
2022-09-27T05:32:56.690Z,98047.31
2022-09-27T05:33:28.164Z,98047.69
2022-09-27T05:33:59.724Z,98046.03
2022-09-27T05:34:31.223Z,98054.84
2022-09-27T05:35:02.849Z,98048.88
2022-09-27T05:35:34.365Z,98049.50
2022-09-27T05:36:05.998Z,98049.13
2022-09-27T05:36:37.793Z,98043.16
2022-09-27T05:37:09.358Z,98052.66
2022-09-27T05:37:40.845Z,98055.50
2022-09-27T05:38:12.394Z,98053.22
2022-09-27T05:38:43.914Z,98054.47
2022-09-27T05:39:15.812Z,98050.16
2022-09-27T05:39:47.492Z,98054.47
2022-09-27T05:40:39.791Z,98053.47
2022-09-27T05:41:10.608Z,98046.47
2022-09-27T05:41:42.647Z,98047.31
2022-09-27T05:42:14.270Z,98044.53
2022-09-27T05:42:45.791Z,98045.22
2022-09-27T05:43:17.595Z,98049.50
2022-09-27T05:43:49.077Z,98053.84
2022-09-27T05:44:20.595Z,98058.34
2022-09-27T05:44:52.086Z,98059.34
2022-09-27T05:45:23.623Z,98053.41
2022-09-27T05:45:55.195Z,98056.25
2022-09-27T05:46:26.899Z,98055.88
2022-09-27T05:47:00.462Z,98055.88
2022-09-27T05:47:32.086Z,98056.69
2022-09-27T05:48:03.770Z,98057.50
2022-09-27T05:48:35.356Z,98057.50
2022-09-27T05:49:06.866Z,98058.34
2022-09-27T05:49:38.454Z,98058.53
2022-09-27T05:50:10.000Z,98054.66
2022-09-27T05:50:41.475Z,98059.53
2022-09-27T05:51:12.971Z,98060.53
2022-09-27T05:51:44.511Z,98062.59
2022-09-27T05:52:16.828Z,98065.25
2022-09-27T05:52:50.810Z,98070.22
2022-09-27T05:53:22.426Z,98072.88
2022-09-27T05:53:53.901Z,98070.84
2022-09-27T05:54:25.555Z,98068.34
2022-09-27T05:54:57.038Z,98063.88
2022-09-27T05:55:28.527Z,98067.16
2022-09-27T05:56:03.611Z,98066.78
2022-09-27T05:56:35.328Z,98060.44
2022-09-27T05:57:06.828Z,98064.13
2022-09-27T05:57:38.286Z,98067.78
2022-09-27T05:58:10.121Z,98064.13
2022-09-27T05:58:41.589Z,98070.66
2022-09-27T05:59:13.082Z,98064.50
2022-09-27T05:59:44.772Z,98073.97
2022-09-27T06:00:16.270Z,98075.78
2022-09-27T06:00:47.748Z,98064.31
2022-09-27T06:01:19.397Z,98068.16
2022-09-27T06:01:51.059Z,98071.88
2022-09-27T06:02:22.612Z,98069.84
2022-09-27T06:02:57.810Z,98068.84
2022-09-27T06:03:29.404Z,98064.31
2022-09-27T06:04:00.921Z,98068.16
2022-09-27T06:04:32.457Z,98061.38
2022-09-27T06:05:03.999Z,98076.81
2022-09-27T06:05:36.080Z,98072.31
2022-09-27T06:06:07.603Z,98067.78
2022-09-27T06:06:39.050Z,98069.66
2022-09-27T06:07:10.588Z,98074.78
2022-09-27T06:07:42.004Z,98069.47
2022-09-27T06:08:13.648Z,98078.09
2022-09-27T06:08:45.147Z,98073.13
2022-09-27T06:09:16.939Z,98074.34
2022-09-27T06:09:48.417Z,98075.16
2022-09-27T06:10:19.802Z,98067.34
2022-09-27T06:10:51.247Z,98072.88
2022-09-27T06:11:22.783Z,98070.66
2022-09-27T06:11:54.246Z,98073.88
2022-09-27T06:12:25.752Z,98078.03
2022-09-27T06:13:00.449Z,98073.13
2022-09-27T06:13:32.170Z,98070.22
2022-09-27T06:14:03.822Z,98071.50
2022-09-27T06:14:35.264Z,98069.03
2022-09-27T06:15:06.940Z,98078.84
2022-09-27T06:15:39.108Z,98074.34
2022-09-27T06:16:11.006Z,98069.84
2022-09-27T06:16:42.571Z,98078.47
2022-09-27T06:17:14.098Z,98081.31
2022-09-27T06:17:45.825Z,98076.16
2022-09-27T06:18:17.355Z,98069.84
2022-09-27T06:18:48.810Z,98071.50
2022-09-27T06:19:20.450Z,98079.31
2022-09-27T06:19:51.918Z,98078.47
2022-09-27T06:20:23.441Z,98079.31
2022-09-27T06:20:55.088Z,98084.63
2022-09-27T06:21:26.550Z,98077.47
2022-09-27T06:21:58.023Z,98081.75
2022-09-27T06:22:29.522Z,98080.94
2022-09-27T06:23:06.474Z,98084.63
2022-09-27T06:23:37.893Z,98080.50
2022-09-27T06:24:09.380Z,98084.84
2022-09-27T06:24:40.961Z,98080.88
2022-09-27T06:25:12.545Z,98078.22
2022-09-27T06:25:44.185Z,98079.88
2022-09-27T06:26:15.768Z,98084.16
2022-09-27T06:26:47.370Z,98083.34
2022-09-27T06:27:18.897Z,98076.81
2022-09-27T06:27:50.606Z,98085.19
2022-09-27T06:28:22.270Z,98091.16
2022-09-27T06:28:54.022Z,98087.50
2022-09-27T06:29:25.477Z,98082.34
2022-09-27T06:29:57.003Z,98096.50
2022-09-27T06:30:28.712Z,98084.16
2022-09-27T06:31:00.246Z,98084.84
2022-09-27T06:31:31.815Z,98085.00
2022-09-27T06:32:03.329Z,98084.63
2022-09-27T06:32:34.826Z,98084.84